createdAt,value
2023-01-13T00:01:12.664Z,99861.00
2023-01-13T00:05:31.588Z,99852.00
2023-01-13T00:09:35.315Z,99850.63
2023-01-13T00:13:39.943Z,99850.63
2023-01-13T00:17:48.704Z,99856.63
2023-01-13T00:21:54.779Z,99851.69
2023-01-13T00:26:00.859Z,99844.13
2023-01-13T00:30:08.547Z,99840.81
2023-01-13T00:34:15.701Z,99839.16
2023-01-13T00:38:25.287Z,99846.16
2023-01-13T00:42:46.741Z,99842.31
2023-01-13T00:46:50.472Z,99847.94
2023-01-13T00:50:57.584Z,99850.16
2023-01-13T00:55:03.035Z,99845.50
2023-01-13T00:59:06.655Z,99843.25
2023-01-13T01:03:12.403Z,99853.25
2023-01-13T01:07:20.396Z,99843.16
2023-01-13T01:11:29.124Z,99857.78
2023-01-13T01:15:39.789Z,99845.47
2023-01-13T01:19:43.070Z,99849.16
2023-01-13T01:23:46.330Z,99858.59
2023-01-13T01:27:51.022Z,99868.47
2023-01-13T01:31:54.643Z,99875.47
2023-01-13T01:35:58.020Z,99885.69
2023-01-13T01:40:01.362Z,99882.94
2023-01-13T01:44:50.637Z,99884.50
2023-01-13T01:48:56.554Z,99900.22
2023-01-13T01:53:04.022Z,99899.06
2023-01-13T01:57:10.529Z,99905.56
2023-01-13T02:01:16.115Z,99894.72
2023-01-13T02:05:20.402Z,99891.69
2023-01-13T02:09:23.837Z,99900.41
2023-01-13T02:13:27.199Z,99892.75
2023-01-13T02:18:00.436Z,99894.56
2023-01-13T02:22:19.599Z,99895.44
2023-01-13T02:27:10.584Z,99880.47
2023-01-13T02:31:34.194Z,99891.22
2023-01-13T02:35:47.430Z,99881.72
2023-01-13T02:39:58.389Z,99879.25
2023-01-13T02:44:06.810Z,99875.66
2023-01-13T02:48:14.977Z,99877.47
2023-01-13T02:52:24.231Z,99880.69
2023-01-13T02:56:28.194Z,99875.75
2023-01-13T03:00:33.711Z,99887.91
2023-01-13T03:04:54.032Z,99880.53
2023-01-13T03:09:04.544Z,99871.50
2023-01-13T03:13:18.724Z,99864.13
2023-01-13T03:17:33.038Z,99872.25
2023-01-13T03:21:44.989Z,99870.28
2023-01-13T03:25:54.434Z,99862.06
2023-01-13T03:30:01.312Z,99866.94
2023-01-13T03:34:10.830Z,99870.47
2023-01-13T03:38:23.535Z,99852.88
2023-01-13T03:42:29.588Z,99843.13
2023-01-13T03:46:39.719Z,99839.59
2023-01-13T03:50:49.189Z,99839.59
2023-01-13T03:54:58.106Z,99853.63
2023-01-13T03:59:05.060Z,99853.63
2023-01-13T04:03:12.536Z,99854.75
2023-01-13T04:07:25.043Z,99834.16
2023-01-13T04:11:35.161Z,99840.91
2023-01-13T04:15:41.134Z,99828.84
2023-01-13T04:19:44.747Z,99838.75
2023-01-13T04:23:51.447Z,99835.25
2023-01-13T04:28:00.240Z,99840.41
2023-01-13T04:32:03.941Z,99834.16
2023-01-13T04:36:07.755Z,99846.06
2023-01-13T04:40:11.789Z,99834.97
2023-01-13T04:44:17.128Z,99833.09
2023-01-13T04:48:20.517Z,99826.69
2023-01-13T04:52:23.785Z,99814.78
2023-01-13T04:56:26.928Z,99839.41
2023-01-13T05:00:32.989Z,99831.03
2023-01-13T05:04:36.024Z,99822.91
2023-01-13T05:08:39.160Z,99812.41
2023-01-13T05:13:00.057Z,99803.44
2023-01-13T05:17:05.040Z,99812.31
2023-01-13T05:21:28.652Z,99811.50
2023-01-13T05:25:30.668Z,99821.22
2023-01-13T05:29:33.691Z,99812.75
2023-01-13T05:33:39.401Z,99820.53
2023-01-13T05:37:42.363Z,99827.84
2023-01-13T05:42:03.156Z,99836.66
2023-01-13T05:46:25.567Z,99839.25
2023-01-13T05:50:29.857Z,99838.94
2023-01-13T05:54:41.550Z,99828.56
2023-01-13T05:58:44.812Z,99824.75
2023-01-13T06:02:48.151Z,99834.97
2023-01-13T06:06:52.722Z,99839.00
2023-01-13T06:10:55.894Z,99850.41
2023-01-13T06:15:07.365Z,99850.34
2023-01-13T06:19:12.992Z,99843.03
2023-01-13T06:23:18.960Z,99841.72
2023-01-13T06:27:22.341Z,99834.16
2023-01-13T06:31:28.748Z,99831.44
2023-01-13T06:35:38.087Z,99829.34
2023-01-13T06:39:49.792Z,99848.03
2023-01-13T06:44:03.881Z,99836.13
2023-01-13T06:48:08.186Z,99837.84
2023-01-13T06:52:11.747Z,99856.31
2023-01-13T06:56:17.083Z,99849.38
2023-01-13T07:00:21.165Z,99853.47
2023-01-13T07:04:24.056Z,99861.69
2023-01-13T07:08:27.287Z,99861.34
2023-01-13T07:12:51.553Z,99865.72
2023-01-13T07:16:54.692Z,99876.84
2023-01-13T07:21:00.925Z,99886.88
2023-01-13T07:25:04.135Z,99875.47
2023-01-13T07:29:08.927Z,99873.69
2023-01-13T07:33:11.990Z,99887.13
2023-01-13T07:37:15.214Z,99868.97
2023-01-13T07:41:36.060Z,99867.91
2023-01-13T07:45:44.366Z,99865.47
2023-01-13T07:49:48.438Z,99868.91
2023-01-13T07:53:52.228Z,99870.78
2023-01-13T07:57:55.698Z,99878.34
2023-01-13T08:02:00.196Z,99884.22
2023-01-13T08:06:04.523Z,99888.34
2023-01-13T08:10:08.967Z,99867.97
2023-01-13T08:14:17.164Z,99874.19
2023-01-13T08:18:23.991Z,99877.97
2023-01-13T08:22:27.642Z,99879.88
2023-01-13T08:26:31.023Z,99889.06
2023-01-13T08:30:36.541Z,99892.84
2023-01-13T08:34:40.827Z,99899.88
2023-01-13T08:38:46.704Z,99904.59
2023-01-13T08:42:52.849Z,99893.16
2023-01-13T08:46:57.236Z,99898.00
2023-01-13T08:51:06.971Z,99897.53
2023-01-13T08:55:11.125Z,99902.13
2023-01-13T08:59:16.608Z,99895.84
2023-01-13T09:03:23.111Z,99910.00
2023-01-13T09:07:40.005Z,99907.88
2023-01-13T09:12:12.207Z,99897.88
2023-01-13T09:16:15.355Z,99923.88
2023-01-13T09:20:18.922Z,99914.59
2023-01-13T09:24:25.602Z,99894.00
2023-01-13T09:28:28.671Z,99905.88
2023-01-13T09:32:32.843Z,99906.47
2023-01-13T09:36:35.833Z,99920.00
2023-01-13T09:40:44.561Z,99939.78
2023-01-13T09:44:56.460Z,99934.81
2023-01-13T09:49:01.795Z,99955.00
2023-01-13T09:53:09.122Z,99936.69
2023-01-13T09:57:16.146Z,99945.41
2023-01-13T10:01:28.620Z,99945.56
2023-01-13T10:05:37.545Z,99962.44
2023-01-13T10:09:49.587Z,99954.50
2023-01-13T10:13:59.200Z,99961.09
2023-01-13T10:18:13.743Z,99977.09
2023-01-13T10:22:25.854Z,99978.69
2023-01-13T10:26:49.075Z,99981.41
2023-01-13T10:30:58.631Z,99983.19
2023-01-13T10:35:02.448Z,99983.66
2023-01-13T10:39:11.069Z,99994.59
2023-01-13T10:43:13.921Z,100002.53
2023-01-13T10:47:25.627Z,100007.50
2023-01-13T10:51:31.185Z,100016.84
2023-01-13T10:55:38.146Z,100024.75
2023-01-13T10:59:41.255Z,100022.53
2023-01-13T11:03:48.027Z,100015.97
2023-01-13T11:07:56.182Z,100012.19
2023-01-13T11:12:00.221Z,100004.56
2023-01-13T11:16:08.571Z,100012.69
2023-01-13T11:20:21.757Z,100025.69
2023-01-13T11:24:36.116Z,100022.47
2023-01-13T11:28:46.957Z,100028.34
2023-01-13T11:33:05.299Z,100031.75
2023-01-13T11:37:15.844Z,100019.72
2023-01-13T11:41:29.577Z,100028.34
2023-01-13T11:45:41.203Z,100017.81
2023-01-13T11:49:48.623Z,100042.00
2023-01-13T11:54:13.553Z,100034.91
2023-01-13T11:58:51.120Z,100032.44
2023-01-13T12:03:04.348Z,100047.78
2023-01-13T12:07:23.131Z,100054.94
2023-01-13T12:11:54.872Z,100052.13
2023-01-13T12:16:10.610Z,100056.72
2023-01-13T12:20:26.666Z,100044.34
2023-01-13T12:24:37.655Z,100053.03
2023-01-13T12:28:50.132Z,100057.13
2023-01-13T12:32:55.196Z,100064.19
2023-01-13T12:37:08.463Z,100075.22
2023-01-13T12:41:25.555Z,100064.50
2023-01-13T12:45:32.376Z,100092.50
2023-01-13T12:49:36.571Z,100078.81
2023-01-13T12:53:39.579Z,100080.75
2023-01-13T12:58:00.631Z,100087.34
2023-01-13T13:02:38.971Z,100083.56
2023-01-13T13:06:44.521Z,100096.78
2023-01-13T13:11:01.723Z,100094.97
2023-01-13T13:15:06.800Z,100116.00
2023-01-13T13:19:55.759Z,100092.56
2023-01-13T13:24:11.918Z,100109.00
2023-01-13T13:28:20.017Z,100122.78
2023-01-13T13:32:56.255Z,100116.31
2023-01-13T13:37:25.816Z,100128.47
2023-01-13T13:41:51.636Z,100132.31
2023-01-13T13:46:12.350Z,100138.59
2023-01-13T13:50:18.405Z,100137.84
2023-01-13T13:54:23.924Z,100150.09
2023-01-13T13:58:33.590Z,100166.94
2023-01-13T14:02:38.523Z,100170.22
2023-01-13T14:06:51.902Z,100167.03
2023-01-13T14:10:55.118Z,100182.94
2023-01-13T14:15:01.336Z,100183.44
2023-01-13T14:19:04.906Z,100183.44
2023-01-13T14:23:15.246Z,100197.81
2023-01-13T14:27:20.374Z,100190.50
2023-01-13T14:31:25.862Z,100202.41
2023-01-13T14:35:30.019Z,100214.34
2023-01-13T14:39:39.050Z,100213.72
2023-01-13T14:43:45.275Z,100216.78
2023-01-13T14:47:56.465Z,100232.00
2023-01-13T14:52:15.008Z,100238.47
2023-01-13T14:56:46.771Z,100243.09
2023-01-13T15:00:50.061Z,100245.66
2023-01-13T15:04:56.995Z,100251.66
2023-01-13T15:09:00.111Z,100258.72
2023-01-13T15:13:04.944Z,100262.81
2023-01-13T15:17:16.543Z,100286.19
2023-01-13T15:21:21.128Z,100294.31
2023-01-13T15:25:24.757Z,100300.56
2023-01-13T15:29:30.946Z,100311.41
2023-01-13T15:33:35.680Z,100311.88
2023-01-13T15:37:42.084Z,100324.34
2023-01-13T15:42:02.884Z,100334.16
2023-01-13T15:46:33.645Z,100323.31
2023-01-13T15:50:37.663Z,100337.91
2023-01-13T15:54:42.810Z,100344.16
2023-01-13T15:58:46.852Z,100345.59
2023-01-13T16:02:50.860Z,100353.16
2023-01-13T16:06:55.286Z,100357.00
2023-01-13T16:11:00.470Z,100373.28
2023-01-13T16:15:04.597Z,100383.88
2023-01-13T16:19:07.725Z,100386.84
2023-01-13T16:23:11.070Z,100387.91
2023-01-13T16:27:18.156Z,100396.84
2023-01-13T16:31:26.644Z,100400.38
2023-01-13T16:35:32.035Z,100412.56
2023-01-13T16:39:35.136Z,100429.63
2023-01-13T16:43:40.306Z,100422.22
2023-01-13T16:47:44.480Z,100427.50
2023-01-13T16:51:49.235Z,100444.00
2023-01-13T16:55:53.054Z,100446.97
2023-01-13T17:00:01.844Z,100461.34
2023-01-13T17:04:05.824Z,100467.00
2023-01-13T17:08:12.711Z,100470.78
2023-01-13T17:12:15.878Z,100468.41
2023-01-13T17:16:24.219Z,100479.97
2023-01-13T17:20:33.709Z,100498.59
2023-01-13T17:24:37.698Z,100506.25
2023-01-13T17:28:40.760Z,100514.16
2023-01-13T17:32:45.314Z,100518.88
2023-01-13T17:36:50.667Z,100531.59
2023-01-13T17:40:54.412Z,100540.81
2023-01-13T17:44:58.417Z,100538.09
2023-01-13T17:49:03.250Z,100549.19
2023-01-13T17:53:06.843Z,100549.53
2023-01-13T17:57:10.500Z,100553.78
2023-01-13T18:01:17.184Z,100564.00
2023-01-13T18:05:21.909Z,100558.84
2023-01-13T18:09:25.928Z,100558.94
2023-01-13T18:13:29.043Z,100562.72
2023-01-13T18:17:31.899Z,100571.53
2023-01-13T18:21:54.574Z,100567.28
2023-01-13T18:26:15.995Z,100564.50
2023-01-13T18:30:19.308Z,100581.50
2023-01-13T18:34:22.712Z,100589.09
2023-01-13T18:38:28.398Z,100601.47
2023-01-13T18:42:48.986Z,100604.59
2023-01-13T18:46:52.215Z,100613.41
2023-01-13T18:50:55.875Z,100621.16
2023-01-13T18:55:00.431Z,100610.63
2023-01-13T18:59:05.001Z,100620.94
2023-01-13T19:07:13.494Z,100643.94
2023-01-13T19:11:20.509Z,100649.81
2023-01-13T19:15:23.958Z,100666.16
2023-01-13T19:19:27.122Z,100659.31
2023-01-13T19:23:30.285Z,100676.56
2023-01-13T19:27:38.836Z,100685.16
2023-01-13T19:31:41.986Z,100683.75
2023-01-13T19:35:45.038Z,100694.16
2023-01-13T19:39:48.041Z,100693.94
2023-01-13T19:44:09.514Z,100709.13
2023-01-13T19:48:16.021Z,100719.75
2023-01-13T19:52:22.167Z,100713.50
2023-01-13T19:56:26.530Z,100711.16
2023-01-13T20:00:31.150Z,100729.53
2023-01-13T20:04:38.320Z,100731.41
2023-01-13T20:08:41.866Z,100717.53
2023-01-13T20:12:44.868Z,100725.28
2023-01-13T20:16:49.266Z,100737.59
2023-01-13T20:20:52.293Z,100758.63
2023-01-13T20:24:55.931Z,100770.50
2023-01-13T20:28:59.107Z,100768.63
2023-01-13T20:33:04.306Z,100766.13
2023-01-13T20:37:08.876Z,100762.59
2023-01-13T20:41:25.906Z,100767.34
2023-01-13T20:45:28.814Z,100777.81
2023-01-13T20:49:34.328Z,100784.88
2023-01-13T20:53:38.144Z,100780.09
2023-01-13T20:57:41.347Z,100783.84
2023-01-13T21:01:44.796Z,100780.31
2023-01-13T21:05:49.188Z,100783.84
2023-01-13T21:09:52.428Z,100794.69
2023-01-13T21:14:12.897Z,100798.41
2023-01-13T21:18:33.836Z,100813.81
2023-01-13T21:22:45.559Z,100820.88
2023-01-13T21:26:51.455Z,100828.31
2023-01-13T21:30:54.573Z,100827.94
2023-01-13T21:34:58.851Z,100831.50
2023-01-13T21:39:03.330Z,100847.19
2023-01-13T21:43:24.951Z,100853.00
2023-01-13T21:47:45.506Z,100855.56
2023-01-13T21:51:48.866Z,100846.81
2023-01-13T21:55:53.750Z,100845.97
2023-01-13T21:59:57.243Z,100850.78
2023-01-13T22:04:22.125Z,100853.91
2023-01-13T22:08:25.125Z,100858.94
2023-01-13T22:12:30.624Z,100861.03
2023-01-13T22:16:37.730Z,100855.63
2023-01-13T22:20:42.069Z,100862.94
2023-01-13T22:24:47.347Z,100856.66
2023-01-13T22:28:52.655Z,100866.88
2023-01-13T22:32:55.723Z,100871.47
2023-01-13T22:36:59.018Z,100878.97
2023-01-13T22:41:04.623Z,100880.84
2023-01-13T22:45:13.304Z,100897.91
2023-01-13T22:49:18.500Z,100914.09
2023-01-13T22:53:22.819Z,100922.38
2023-01-13T22:57:26.899Z,100927.59
2023-01-13T23:01:33.890Z,100927.59
2023-01-13T23:05:37.112Z,100926.31
2023-01-13T23:09:40.222Z,100921.97
2023-01-13T23:13:44.233Z,100922.19
2023-01-13T23:17:51.177Z,100933.41
2023-01-13T23:21:54.406Z,100923.66
2023-01-13T23:25:57.701Z,100933.03
2023-01-13T23:30:01.979Z,100935.94
2023-01-13T23:34:09.379Z,100937.78
2023-01-13T23:38:12.234Z,100938.22
2023-01-13T23:42:15.693Z,100939.66
2023-01-13T23:46:20.249Z,100935.50
2023-01-13T23:50:26.624Z,100928.81
2023-01-13T23:54:29.704Z,100921.13
2023-01-13T23:58:33.447Z,100932.53
